TAF LFBM
METAR LFBM
LFBM 082130Z AUTO 00000KT 9999 -RADZ FEW008/// SCT022/// BKN030/// ///TCU 05/03 Q1012 TEMPO 4000 SHRA BECMG 25010KT=
LFBM 082100Z AUTO 34007KT 300V070 9999 SCT008/// BKN014/// BKN024/// ///CB 05/04 Q1012 TEMPO 4000 SHRA BKN030TCU=
LFBM 082030Z AUTO 25007KT 9999 FEW012/// SCT018/// BKN029/// ///CB 05/04 Q1011 TEMPO 4000 SHRA=
LFBM 082000Z AUTO 23006KT 190V260 9999 FEW013/// SCT035/// BKN060/// ///CB 05/03 Q1011 TEMPO 4000 SHRA BKN010 BKN030TCU=
LFBM 081930Z AUTO 22006KT 180V250 9999 FEW006/// SCT034/// OVC047/// ///TCU 05/03 Q1010 TEMPO 4000 SHRA BKN010 BKN030TCU=
WC LFBM
WS LFBM
WV LFBM